Time;durP1;ratioP1;P1;durP2;ratioP2;P2;SDS_P1;SDS_P2;PMS_P1;PMS_P2;Temp;Humidity;BMP_temperature;BMP_pressure;BME280_temperature;BME280_humidity;BME280_pressure;Samples;Min_cycle;Max_cycle;Signal;HPM_P1;HPM_P2
2023/11/16 00:01:13;;;;;;;0.97;0.87;;;;;;;9.05;79.29;95734.38;5122736;28;20199;-81
2023/11/16 00:03:40;;;;;;;2.00;1.30;;;;;;;9.05;79.55;95747.22;5122371;28;20210;-80
2023/11/16 00:06:10;;;;;;;3.57;1.30;;;;;;;9.06;79.50;95737.75;5122273;28;20267;-81
2023/11/16 00:08:37;;;;;;;2.10;1.70;;;;;;;9.06;79.30;95735.16;5110295;28;20211;-81
2023/11/16 00:11:06;;;;;;;3.13;1.77;;;;;;;9.12;79.04;95725.06;5122767;28;20199;-81
2023/11/16 00:13:32;;;;;;;2.63;1.00;;;;;;;9.15;78.96;95726.50;5121198;28;20259;-80
2023/11/16 00:15:59;;;;;;;2.63;1.20;;;;;;;9.11;78.60;95720.88;5115049;28;20204;-80
2023/11/16 00:18:26;;;;;;;2.90;1.20;;;;;;;9.09;78.72;95722.00;5119028;28;20223;-79
2023/11/16 00:20:55;;;;;;;3.43;1.23;;;;;;;9.04;78.83;95724.28;5120796;28;20696;-80
2023/11/16 00:23:22;;;;;;;2.43;1.10;;;;;;;9.08;78.94;95728.09;5119749;28;20223;-80
2023/11/16 00:25:48;;;;;;;1.83;1.40;;;;;;;9.12;78.96;95729.38;5121539;28;20202;-80
2023/11/16 00:28:17;;;;;;;2.60;1.10;;;;;;;9.13;78.79;95718.16;5121366;28;20220;-80
2023/11/16 00:30:44;;;;;;;3.27;1.07;;;;;;;9.16;78.56;95715.25;5120603;28;20191;-80
2023/11/16 00:33:10;;;;;;;2.93;1.20;;;;;;;9.14;78.38;95707.72;5120557;28;20196;-80
2023/11/16 00:35:37;;;;;;;2.80;1.10;;;;;;;9.18;78.71;95721.84;5118868;28;20245;-81
2023/11/16 00:38:03;;;;;;;3.30;1.50;;;;;;;9.14;78.47;95714.63;5120666;28;20219;-80
2023/11/16 00:40:32;;;;;;;1.50;1.17;;;;;;;9.15;78.35;95719.59;5120949;28;20210;-81
2023/11/16 00:42:59;;;;;;;3.20;1.30;;;;;;;9.17;78.47;95719.44;5120556;28;20215;-81
2023/11/16 00:45:27;;;;;;;2.13;1.23;;;;;;;9.16;78.42;95716.06;5119611;28;20211;-80
2023/11/16 00:47:53;;;;;;;2.33;1.20;;;;;;;9.17;78.29;95711.72;5123355;28;20230;-81
2023/11/16 00:50:21;;;;;;;3.10;1.50;;;;;;;9.16;78.11;95705.78;5119064;28;20196;-81
2023/11/16 00:52:47;;;;;;;2.63;1.20;;;;;;;9.15;78.27;95711.88;5123466;28;20203;-81
2023/11/16 00:55:15;;;;;;;3.80;1.30;;;;;;;9.11;78.22;95715.75;5123048;28;20264;-81
2023/11/16 00:57:43;;;;;;;3.00;1.30;;;;;;;9.13;78.08;95710.44;5122834;28;20286;-81
2023/11/16 01:00:11;;;;;;;1.20;1.10;;;;;;;9.11;78.05;95714.94;5123607;28;20209;-81
2023/11/16 01:02:38;;;;;;;3.43;1.37;;;;;;;9.08;78.24;95708.38;5123010;28;20211;-81
2023/11/16 01:05:06;;;;;;;1.43;0.80;;;;;;;9.07;78.15;95713.66;5123664;28;20203;-81
2023/11/16 01:07:33;;;;;;;3.03;1.27;;;;;;;9.06;78.23;95714.63;5121270;28;20219;-81
2023/11/16 01:10:05;;;;;;;2.70;1.10;;;;;;;8.99;77.82;95697.31;5120815;28;20200;-81
2023/11/16 01:12:31;;;;;;;1.67;1.03;;;;;;;8.96;78.35;95714.81;5122476;28;20672;-80
2023/11/16 01:14:59;;;;;;;2.43;1.20;;;;;;;8.94;78.11;95709.84;5123648;28;20203;-81
2023/11/16 01:17:31;;;;;;;1.97;1.17;;;;;;;8.96;78.05;95710.50;5106270;28;20196;-81
2023/11/16 01:20:04;;;;;;;1.90;1.10;;;;;;;9.02;77.93;95706.47;5102967;28;20665;-81
2023/11/16 01:22:40;;;;;;;2.60;1.10;;;;;;;8.92;78.03;95705.84;5115085;28;20198;-81
2023/11/16 01:25:14;;;;;;;2.27;1.10;;;;;;;8.96;78.20;95713.06;5121620;28;20271;-80
2023/11/16 01:27:43;;;;;;;3.00;1.03;;;;;;;9.03;78.31;95709.84;5122264;28;20559;-80
2023/11/16 01:30:12;;;;;;;2.57;1.00;;;;;;;9.07;77.65;95699.06;5122691;28;20229;-79
2023/11/16 01:32:38;;;;;;;3.33;1.30;;;;;;;9.07;77.91;95700.81;5122844;28;20657;-81
2023/11/16 01:35:07;;;;;;;2.33;1.20;;;;;;;8.99;77.80;95705.03;5122370;28;20217;-80
2023/11/16 01:37:34;;;;;;;2.83;1.37;;;;;;;9.00;78.00;95709.19;5123126;28;20450;-80
2023/11/16 01:40:01;;;;;;;2.10;1.20;;;;;;;9.00;77.80;95708.41;5121774;28;20196;-81
2023/11/16 01:42:27;;;;;;;4.30;1.30;;;;;;;9.05;77.77;95707.88;5123104;28;20231;-80
2023/11/16 01:44:53;;;;;;;2.47;1.10;;;;;;;9.13;77.68;95705.31;5122504;28;20210;-80
2023/11/16 01:47:20;;;;;;;1.90;1.20;;;;;;;9.17;77.49;95691.19;5122643;28;20204;-80
2023/11/16 01:49:47;;;;;;;1.73;1.10;;;;;;;9.20;77.09;95681.38;5123398;28;20216;-80
2023/11/16 01:52:15;;;;;;;1.80;1.20;;;;;;;9.22;77.28;95679.44;5122793;28;20199;-80
2023/11/16 01:54:43;;;;;;;2.83;1.30;;;;;;;9.22;77.00;95678.66;5118523;28;20218;-80
2023/11/16 01:57:09;;;;;;;3.17;1.20;;;;;;;9.21;76.90;95671.91;5122552;28;20204;-80
2023/11/16 01:59:38;;;;;;;3.43;1.20;;;;;;;9.23;76.94;95667.41;5123194;28;20256;-80
2023/11/16 02:02:08;;;;;;;1.80;1.23;;;;;;;9.11;76.91;95668.72;5121885;28;20200;-80
2023/11/16 02:04:34;;;;;;;2.70;1.20;;;;;;;9.15;76.97;95670.00;5122348;28;20239;-80
2023/11/16 02:07:03;;;;;;;1.77;1.27;;;;;;;9.18;76.77;95670.47;5118838;28;20196;-82
2023/11/16 02:09:31;;;;;;;2.97;1.30;;;;;;;9.18;76.66;95670.47;5116625;28;20280;-81
2023/11/16 02:11:56;;;;;;;2.40;1.10;;;;;;;9.15;76.61;95663.09;5119984;28;20203;-81
2023/11/16 02:14:23;;;;;;;2.30;1.23;;;;;;;9.07;76.26;95663.09;5121167;28;20202;-81
2023/11/16 02:16:49;;;;;;;2.23;1.30;;;;;;;9.07;76.42;95659.72;5121597;28;20203;-81
2023/11/16 02:19:28;;;;;;;3.80;1.10;;;;;;;9.13;76.69;95665.00;5121570;28;20223;-81
2023/11/16 02:21:55;;;;;;;1.93;1.40;;;;;;;9.16;76.40;95656.19;5122006;28;20211;-81
2023/11/16 02:24:23;;;;;;;5.47;1.60;;;;;;;9.12;76.18;95648.00;5120269;28;20706;-81
2023/11/16 02:26:50;;;;;;;1.73;0.97;;;;;;;9.11;75.77;95641.25;5119442;28;20271;-81
2023/11/16 02:29:17;;;;;;;2.20;1.10;;;;;;;9.14;76.20;95647.84;5121422;28;20230;-81
2023/11/16 02:31:43;;;;;;;1.50;1.00;;;;;;;9.11;76.16;95648.97;5121406;28;20199;-81
2023/11/16 02:34:10;;;;;;;2.47;1.20;;;;;;;9.11;75.97;95645.59;5121872;28;20199;-81
2023/11/16 02:36:37;;;;;;;3.27;1.10;;;;;;;9.13;75.58;95643.66;5121690;28;20199;-81
2023/11/16 02:39:04;;;;;;;2.30;1.30;;;;;;;9.16;75.75;95644.16;5101111;28;20231;-81
2023/11/16 02:41:32;;;;;;;2.07;1.10;;;;;;;9.18;75.79;95642.22;5102056;28;20212;-81
2023/11/16 02:43:58;;;;;;;2.47;1.40;;;;;;;9.21;75.71;95635.94;5117388;28;20195;-80
2023/11/16 02:46:24;;;;;;;1.77;1.20;;;;;;;9.26;75.44;95633.66;5122062;28;20225;-80
2023/11/16 02:48:51;;;;;;;2.00;1.20;;;;;;;9.27;75.09;95624.97;5121155;28;20222;-80
2023/11/16 02:51:19;;;;;;;2.23;1.10;;;;;;;9.24;75.23;95618.41;5121348;28;20196;-80
2023/11/16 02:53:46;;;;;;;2.80;1.07;;;;;;;9.21;74.94;95613.63;5120100;28;20200;-80
2023/11/16 02:56:13;;;;;;;2.00;1.23;;;;;;;9.25;75.22;95619.19;5121499;28;20199;-81
2023/11/16 02:58:42;;;;;;;3.00;1.30;;;;;;;9.23;75.36;95618.59;5120373;28;20219;-80
2023/11/16 03:01:09;;;;;;;2.87;1.20;;;;;;;9.19;75.28;95622.47;5116522;28;20207;-80
2023/11/16 03:03:36;;;;;;;2.83;1.27;;;;;;;9.16;75.17;95617.66;5121234;28;20202;-80
2023/11/16 03:06:03;;;;;;;2.30;1.20;;;;;;;9.13;75.01;95618.78;5101276;28;20246;-80
2023/11/16 03:08:30;;;;;;;1.47;1.20;;;;;;;9.13;75.23;95617.97;5112474;28;20601;-80
2023/11/16 03:10:57;;;;;;;3.23;1.50;;;;;;;9.09;75.37;95621.84;5120509;28;20191;-80
2023/11/16 03:13:23;;;;;;;3.60;1.10;;;;;;;9.09;75.26;95619.28;5121823;28;20204;-81
2023/11/16 03:15:51;;;;;;;1.10;1.00;;;;;;;9.04;75.65;95624.94;5120020;28;20207;-81
2023/11/16 03:18:18;;;;;;;4.63;1.27;;;;;;;9.05;75.86;95635.97;5113336;28;20231;-80
2023/11/16 03:20:46;;;;;;;2.03;1.20;;;;;;;9.05;75.75;95625.69;5121416;28;20649;-80
2023/11/16 03:23:13;;;;;;;3.57;1.53;;;;;;;9.06;75.50;95612.69;5119255;28;20195;-80
2023/11/16 03:25:40;;;;;;;3.03;1.00;;;;;;;9.04;75.54;95621.56;5121580;28;20195;-81
2023/11/16 03:28:06;;;;;;;2.13;1.10;;;;;;;8.98;75.30;95605.03;5121030;28;20226;-80
2023/11/16 03:30:33;;;;;;;3.30;1.20;;;;;;;8.93;75.34;95613.22;5119638;28;20196;-80
2023/11/16 03:33:01;;;;;;;2.23;1.00;;;;;;;8.89;75.11;95603.44;5116839;28;20653;-81
2023/11/16 03:35:27;;;;;;;1.57;1.10;;;;;;;8.86;75.43;95607.16;5120660;28;20215;-81
2023/11/16 03:37:54;;;;;;;1.93;1.03;;;;;;;8.82;75.55;95608.47;5119512;28;20213;-80
2023/11/16 03:40:20;;;;;;;4.00;1.30;;;;;;;8.84;75.35;95603.97;5120487;28;20215;-80
2023/11/16 03:42:47;;;;;;;2.13;1.10;;;;;;;8.82;75.14;95594.81;5119298;28;20192;-80
2023/11/16 03:45:13;;;;;;;2.73;1.13;;;;;;;8.83;75.41;95604.13;5119628;28;20203;-80
2023/11/16 03:47:40;;;;;;;2.70;1.20;;;;;;;8.87;75.11;95605.38;5118435;28;20218;-81
2023/11/16 03:50:10;;;;;;;1.87;1.00;;;;;;;8.90;74.69;95587.88;5119846;28;20203;-80
2023/11/16 03:52:37;;;;;;;1.73;1.00;;;;;;;8.93;74.70;95585.00;5118886;28;20825;-80
2023/11/16 03:55:04;;;;;;;1.83;1.00;;;;;;;8.91;74.64;95574.09;5120983;28;20196;-81
2023/11/16 03:57:30;;;;;;;1.87;1.10;;;;;;;8.88;74.49;95578.75;5121085;28;20214;-79
2023/11/16 03:59:57;;;;;;;4.43;1.30;;;;;;;8.85;74.33;95566.25;5112264;28;20216;-80
2023/11/16 04:02:24;;;;;;;2.00;1.23;;;;;;;8.82;74.40;95564.03;5120617;28;20226;-80
2023/11/16 04:04:51;;;;;;;4.77;1.30;;;;;;;8.72;74.22;95565.97;5118397;28;20199;-80
2023/11/16 04:07:19;;;;;;;1.30;1.00;;;;;;;8.70;74.40;95575.59;5116095;28;20196;-80
2023/11/16 04:09:45;;;;;;;3.80;1.40;;;;;;;8.68;74.55;95575.75;5099457;28;20224;-80
2023/11/16 04:12:12;;;;;;;2.73;1.10;;;;;;;8.69;74.68;95581.69;5100655;28;20207;-80
2023/11/16 04:14:40;;;;;;;1.50;1.00;;;;;;;8.66;74.84;95575.13;5117958;28;20199;-79
2023/11/16 04:17:09;;;;;;;2.10;1.10;;;;;;;8.64;74.54;95565.03;5119735;28;20195;-80
2023/11/16 04:19:36;;;;;;;1.90;1.20;;;;;;;8.64;74.77;95561.66;5117242;28;20215;-80
2023/11/16 04:22:03;;;;;;;4.63;1.30;;;;;;;8.70;74.88;95550.72;5122562;28;20195;-80
2023/11/16 04:24:31;;;;;;;3.77;1.30;;;;;;;8.69;74.72;95543.19;5122568;28;20210;-80
2023/11/16 04:26:58;;;;;;;2.50;1.20;;;;;;;8.66;74.70;95542.56;5123478;28;20209;-80
2023/11/16 04:29:24;;;;;;;3.30;1.23;;;;;;;8.67;74.66;95538.22;5121427;28;20219;-80
2023/11/16 04:31:50;;;;;;;1.80;1.20;;;;;;;8.64;74.97;95544.50;5122501;28;20218;-80
2023/11/16 04:34:17;;;;;;;2.27;1.10;;;;;;;8.65;74.89;95545.31;5122211;28;20238;-80
2023/11/16 04:36:43;;;;;;;4.10;1.40;;;;;;;8.63;74.96;95542.91;5119370;28;20191;-80
2023/11/16 04:39:11;;;;;;;1.33;1.23;;;;;;;8.63;74.98;95540.34;5122708;28;20230;-80
2023/11/16 04:41:44;;;;;;;2.00;1.10;;;;;;;8.65;75.10;95547.88;5123044;28;20219;-81
2023/11/16 04:44:11;;;;;;;1.60;1.00;;;;;;;8.70;75.31;95537.91;5122870;28;20226;-81
2023/11/16 04:46:45;;;;;;;4.43;1.60;;;;;;;8.77;74.97;95540.59;5121284;28;20211;-80
2023/11/16 04:49:11;;;;;;;2.20;1.10;;;;;;;8.80;75.09;95525.69;5122237;28;20212;-80
2023/11/16 04:51:39;;;;;;;2.03;1.27;;;;;;;8.80;74.93;95524.88;5119782;28;20199;-80
2023/11/16 04:54:07;;;;;;;3.30;1.30;;;;;;;8.80;74.94;95517.97;5121016;28;20257;-80
2023/11/16 04:56:34;;;;;;;3.30;1.40;;;;;;;8.82;75.09;95520.38;5116558;28;20203;-81
2023/11/16 04:59:03;;;;;;;2.73;1.27;;;;;;;8.84;75.11;95510.75;5115698;28;20218;-80
2023/11/16 05:01:29;;;;;;;2.03;1.20;;;;;;;8.84;75.03;95508.97;5121133;28;20195;-80
2023/11/16 05:03:56;;;;;;;2.27;1.33;;;;;;;8.85;74.93;95496.94;5120705;28;20676;-80
2023/11/16 05:06:23;;;;;;;2.30;1.13;;;;;;;8.86;74.88;95483.13;5120728;28;20594;-80
2023/11/16 05:08:51;;;;;;;2.70;1.20;;;;;;;8.81;74.77;95493.09;5112377;28;20247;-80
2023/11/16 05:11:22;;;;;;;3.93;1.27;;;;;;;8.81;74.77;95499.03;5121376;28;20709;-81
2023/11/16 05:13:48;;;;;;;2.37;1.40;;;;;;;8.80;74.98;95499.22;5121747;28;20233;-82
2023/11/16 05:16:16;;;;;;;2.70;1.27;;;;;;;8.77;75.23;95496.97;5121784;28;20203;-81
2023/11/16 05:18:43;;;;;;;2.40;1.20;;;;;;;8.78;75.23;95511.41;5121204;28;20212;-81
2023/11/16 05:21:09;;;;;;;4.20;1.20;;;;;;;8.78;75.68;95516.53;5121146;28;20195;-80
2023/11/16 05:23:36;;;;;;;2.27;1.10;;;;;;;8.79;75.21;95513.81;5120405;28;20191;-80
2023/11/16 05:26:02;;;;;;;3.60;1.70;;;;;;;8.73;75.64;95518.78;5119760;28;20592;-80
2023/11/16 05:28:29;;;;;;;3.30;1.70;;;;;;;8.70;75.33;95511.44;5113372;28;20824;-81
2023/11/16 05:30:55;;;;;;;3.40;1.70;;;;;;;8.70;75.33;95508.84;5108912;28;20743;-80
2023/11/16 05:33:23;;;;;;;2.93;1.50;;;;;;;8.65;75.17;95501.69;5105008;28;20215;-81
2023/11/16 05:35:51;;;;;;;2.37;1.30;;;;;;;8.61;75.70;95515.81;5110223;28;20200;-81
2023/11/16 05:38:17;;;;;;;2.40;1.60;;;;;;;8.56;75.65;95529.13;5113385;28;20211;-81
2023/11/16 05:40:44;;;;;;;3.87;1.40;;;;;;;8.53;75.93;95544.84;5109854;28;20696;-81
2023/11/16 05:43:10;;;;;;;3.63;1.40;;;;;;;8.53;76.35;95554.31;5112556;28;20200;-81
2023/11/16 05:45:39;;;;;;;5.97;1.87;;;;;;;8.54;76.81;95566.97;5107630;28;20804;-81
2023/11/16 05:48:07;;;;;;;3.33;1.60;;;;;;;8.55;76.66;95555.75;5110518;28;20230;-81
2023/11/16 05:50:35;;;;;;;6.37;2.00;;;;;;;8.56;76.51;95557.34;5110617;28;20413;-80
2023/11/16 05:53:02;;;;;;;3.73;1.47;;;;;;;8.56;76.14;95549.66;5110236;28;20199;-80
2023/11/16 05:55:31;;;;;;;3.20;1.70;;;;;;;8.60;76.32;95542.44;5108175;28;20231;-81
2023/11/16 05:57:58;;;;;;;3.83;1.80;;;;;;;8.56;76.32;95536.03;5112640;28;20195;-80
2023/11/16 06:00:24;;;;;;;3.03;1.33;;;;;;;8.58;76.16;95529.75;5110679;28;20227;-80
2023/11/16 06:02:52;;;;;;;8.27;2.00;;;;;;;8.57;76.20;95522.22;5118339;28;20199;-81
2023/11/16 06:05:19;;;;;;;2.13;1.40;;;;;;;8.53;76.23;95516.63;5119633;28;20505;-80
2023/11/16 06:07:46;;;;;;;5.33;2.07;;;;;;;8.55;76.02;95514.69;5107366;28;20192;-81
2023/11/16 06:10:16;;;;;;;3.93;1.70;;;;;;;8.56;76.32;95523.19;5119266;28;20196;-81
2023/11/16 06:12:44;;;;;;;3.50;1.70;;;;;;;8.52;75.91;95506.53;5115636;28;20196;-82
2023/11/16 06:15:14;;;;;;;4.90;2.17;;;;;;;8.48;75.70;95503.47;5118276;28;20263;-81
2023/11/16 06:17:41;;;;;;;3.17;2.00;;;;;;;8.37;75.98;95515.88;5110572;28;20253;-80
2023/11/16 06:20:10;;;;;;;2.90;1.73;;;;;;;8.31;76.80;95536.03;5098114;28;20672;-81
2023/11/16 06:22:36;;;;;;;3.47;1.63;;;;;;;8.28;76.99;95531.22;5097500;28;20208;-80
2023/11/16 06:25:05;;;;;;;4.20;1.57;;;;;;;8.25;76.85;95512.84;5096596;28;20207;-81
2023/11/16 06:27:31;;;;;;;18.50;14.70;;;;;;;8.13;76.90;95517.47;5097384;28;20215;-80
2023/11/16 06:29:58;;;;;;;12.43;7.70;;;;;;;8.12;77.07;95536.41;5108945;28;20219;-82
2023/11/16 06:32:24;;;;;;;5.13;2.70;;;;;;;8.11;77.79;95550.19;5116028;28;20202;-81
2023/11/16 06:34:51;;;;;;;3.53;1.60;;;;;;;8.06;77.33;95538.81;5107359;28;20690;-81
2023/11/16 06:37:17;;;;;;;1.97;1.80;;;;;;;8.06;77.85;95549.88;5106815;28;20206;-81
2023/11/16 06:39:44;;;;;;;3.00;1.60;;;;;;;8.09;77.52;95541.84;5103868;28;20234;-80
2023/11/16 06:42:12;;;;;;;4.00;1.60;;;;;;;8.15;77.07;95543.78;5113859;28;20194;-81
2023/11/16 06:44:38;;;;;;;1.83;1.37;;;;;;;8.16;76.84;95535.13;5115617;28;20203;-81
2023/11/16 06:47:05;;;;;;;7.57;1.73;;;;;;;8.20;76.83;95521.00;5111025;28;20207;-81
2023/11/16 06:49:32;;;;;;;2.43;1.70;;;;;;;8.24;76.75;95514.59;5108972;28;20314;-81
2023/11/16 06:51:58;;;;;;;2.17;1.27;;;;;;;8.27;76.69;95510.91;5112290;28;20196;-80
2023/11/16 06:54:31;;;;;;;2.50;1.53;;;;;;;8.46;76.23;95500.31;5112327;28;20229;-80
2023/11/16 06:56:57;;;;;;;4.57;1.77;;;;;;;8.76;74.93;95470.50;5116926;28;20196;-80
2023/11/16 06:59:25;;;;;;;2.40;1.60;;;;;;;8.94;73.98;95427.41;5111857;28;20226;-80
2023/11/16 07:01:52;;;;;;;4.83;1.70;;;;;;;9.02;73.42;95405.22;5106468;28;20207;-80
2023/11/16 07:04:19;;;;;;;3.60;1.53;;;;;;;8.94;73.29;95391.44;5111453;28;20207;-81
2023/11/16 07:06:46;;;;;;;4.13;1.53;;;;;;;8.87;73.42;95398.22;5111364;28;20260;-81
2023/11/16 07:09:13;;;;;;;2.23;1.50;;;;;;;8.80;73.95;95404.22;5113625;28;20211;-81
2023/11/16 07:11:41;;;;;;;4.17;1.73;;;;;;;8.85;73.65;95402.72;5111411;28;20206;-81
2023/11/16 07:14:07;;;;;;;2.83;1.40;;;;;;;8.96;73.58;95393.84;5111015;28;20204;-81
2023/11/16 07:17:11;;;;;;;3.00;1.93;;;;;;;9.09;73.26;95383.00;5101063;28;20196;-81
2023/11/16 07:19:39;;;;;;;2.60;1.67;;;;;;;9.18;72.99;95380.22;5105587;28;20231;-81
2023/11/16 07:22:08;;;;;;;3.87;1.90;;;;;;;9.28;72.77;95370.47;5111097;28;20203;-81
2023/11/16 07:24:36;;;;;;;3.93;1.53;;;;;;;9.30;71.80;95345.41;5109924;28;20222;-81
2023/11/16 07:27:03;;;;;;;2.70;1.70;;;;;;;9.32;71.76;95330.63;5110387;28;20210;-81
2023/11/16 07:29:30;;;;;;;3.93;1.77;;;;;;;9.42;71.66;95334.72;5110115;28;20312;-81
2023/11/16 07:31:56;;;;;;;3.20;1.20;;;;;;;9.53;71.21;95311.16;5110454;28;20195;-81
2023/11/16 07:34:23;;;;;;;1.93;1.50;;;;;;;9.52;70.86;95292.38;5107781;28;20676;-82
2023/11/16 07:36:51;;;;;;;3.57;1.40;;;;;;;9.55;70.70;95292.03;5116094;28;20260;-82
2023/11/16 07:39:18;;;;;;;1.70;1.30;;;;;;;9.64;71.74;95336.41;5115493;28;20268;-81
2023/11/16 07:41:45;;;;;;;1.43;1.30;;;;;;;9.68;70.61;95292.19;5116949;28;20202;-80
2023/11/16 07:44:11;;;;;;;2.27;1.10;;;;;;;9.65;70.33;95264.28;5112768;28;20192;-81
2023/11/16 07:46:38;;;;;;;3.10;1.30;;;;;;;9.69;70.53;95260.38;5114327;28;20203;-81
2023/11/16 07:49:05;;;;;;;1.77;1.33;;;;;;;9.78;69.86;95250.00;5113581;28;20222;-81
2023/11/16 07:51:32;;;;;;;1.73;1.20;;;;;;;9.67;69.05;95207.53;5112619;28;20859;-81
2023/11/16 07:54:04;;;;;;;3.93;1.40;;;;;;;9.75;68.90;95210.03;5114354;28;20235;-81
2023/11/16 07:56:31;;;;;;;3.07;1.40;;;;;;;9.88;68.83;95202.44;5112520;28;20249;-82
2023/11/16 07:58:59;;;;;;;1.90;1.30;;;;;;;9.97;67.98;95180.81;5112739;28;20219;-81
2023/11/16 08:01:29;;;;;;;2.63;1.20;;;;;;;10.07;67.77;95165.06;5114272;28;20219;-81
2023/11/16 08:03:55;;;;;;;3.93;1.20;;;;;;;10.12;67.44;95149.06;5113126;28;20207;-81
2023/11/16 08:06:22;;;;;;;2.00;1.20;;;;;;;10.21;66.71;95104.25;5109910;28;20200;-80
2023/11/16 08:08:49;;;;;;;2.30;0.97;;;;;;;10.25;66.43;95087.47;5111893;28;20234;-81
2023/11/16 08:11:19;;;;;;;2.20;1.20;;;;;;;10.33;65.29;95049.53;5113511;28;20195;-81
2023/11/16 08:13:47;;;;;;;3.00;1.20;;;;;;;10.44;65.06;95022.47;5110530;28;20191;-81
2023/11/16 08:16:15;;;;;;;2.60;1.10;;;;;;;10.46;65.15;95023.09;5111629;28;20196;-81
2023/11/16 08:18:42;;;;;;;3.27;1.27;;;;;;;10.47;65.10;95026.47;5109925;28;20586;-81
2023/11/16 08:21:09;;;;;;;3.23;1.30;;;;;;;10.45;64.35;94993.19;5105676;28;20219;-81
2023/11/16 08:23:38;;;;;;;3.13;1.10;;;;;;;10.60;64.54;95004.16;5104109;28;20289;-81
2023/11/16 08:26:07;;;;;;;1.00;0.90;;;;;;;10.59;64.56;95005.13;5109995;28;20298;-81
2023/11/16 08:28:35;;;;;;;1.93;1.10;;;;;;;10.58;64.24;94989.91;5110354;28;20579;-81
2023/11/16 08:31:02;;;;;;;2.00;1.00;;;;;;;10.41;64.11;94984.25;5111119;28;20196;-81
2023/11/16 08:33:29;;;;;;;1.97;1.00;;;;;;;10.34;64.31;94984.25;5109506;28;20207;-80
2023/11/16 08:35:57;;;;;;;2.30;1.20;;;;;;;10.26;64.48;94986.16;5110259;28;20660;-81
2023/11/16 08:38:25;;;;;;;1.67;1.10;;;;;;;10.20;64.70;94987.69;5104773;28;20212;-81
2023/11/16 08:40:52;;;;;;;2.70;1.30;;;;;;;10.19;65.14;95009.28;5108174;28;20224;-81
2023/11/16 08:43:19;;;;;;;4.67;1.37;;;;;;;10.19;65.02;95016.22;5089636;28;20261;-81
2023/11/16 08:45:47;;;;;;;1.97;1.03;;;;;;;10.14;64.93;95008.22;5092953;28;20202;-81
2023/11/16 08:48:16;;;;;;;3.23;1.13;;;;;;;10.09;65.24;95015.69;5109257;28;20234;-81
2023/11/16 08:50:43;;;;;;;1.90;1.20;;;;;;;10.15;65.72;95044.03;5109963;28;20206;-81
2023/11/16 08:53:12;;;;;;;4.20;1.30;;;;;;;10.12;65.47;95020.47;5109841;28;20215;-81
2023/11/16 08:55:49;;;;;;;1.57;1.10;;;;;;;10.14;65.52;95032.16;5104508;28;20204;-81
2023/11/16 08:58:16;;;;;;;2.93;1.10;;;;;;;10.14;65.48;95021.88;5090481;28;20223;-81
2023/11/16 09:00:47;;;;;;;3.23;1.20;;;;;;;10.13;65.20;95009.19;5098931;28;20212;-81
2023/11/16 09:03:16;;;;;;;2.60;1.20;;;;;;;10.12;64.88;94997.31;5109184;28;20207;-81
2023/11/16 09:05:43;;;;;;;3.80;1.23;;;;;;;10.17;65.28;95008.63;5110904;28;20200;-81
2023/11/16 09:08:11;;;;;;;2.07;1.30;;;;;;;10.25;65.39;95016.22;5100807;28;20216;-81
2023/11/16 09:10:41;;;;;;;1.40;1.10;;;;;;;10.30;65.32;95013.09;5096081;28;20257;-80
2023/11/16 09:13:08;;;;;;;2.00;1.40;;;;;;;10.25;65.00;94997.44;5112797;28;20212;-81
2023/11/16 09:15:34;;;;;;;2.73;1.13;;;;;;;10.23;65.01;95005.31;5112941;28;20200;-81
2023/11/16 09:18:02;;;;;;;2.50;1.37;;;;;;;10.20;65.15;94995.41;5113573;28;20207;-81
2023/11/16 09:20:30;;;;;;;1.30;1.00;;;;;;;10.18;65.67;95010.22;5113490;28;20222;-81
2023/11/16 09:22:57;;;;;;;2.83;1.50;;;;;;;10.25;65.37;95005.16;5113147;28;20203;-81
2023/11/16 09:25:25;;;;;;;2.10;1.30;;;;;;;10.30;65.25;95000.22;5112055;28;20721;-81
2023/11/16 09:27:54;;;;;;;2.77;1.27;;;;;;;10.27;64.94;94987.75;5110631;28;20203;-80
2023/11/16 09:30:22;;;;;;;2.40;1.33;;;;;;;10.28;65.05;94973.91;5112841;28;20683;-81
2023/11/16 09:32:50;;;;;;;1.50;1.10;;;;;;;10.37;65.40;94989.00;5114393;28;20204;-81
2023/11/16 09:35:21;;;;;;;2.40;1.10;;;;;;;10.31;64.69;94958.88;5112689;28;20657;-81
2023/11/16 09:37:52;;;;;;;2.73;1.10;;;;;;;10.35;64.81;94967.81;5103944;28;20200;-80
2023/11/16 09:40:21;;;;;;;2.17;1.50;;;;;;;10.35;64.83;94960.09;5112589;28;20226;-81
2023/11/16 09:42:48;;;;;;;2.77;1.10;;;;;;;10.34;65.09;94957.72;5111291;28;20597;-81
2023/11/16 09:45:16;;;;;;;1.20;1.10;;;;;;;10.37;64.96;94947.84;5112387;28;20625;-81
2023/11/16 09:47:47;;;;;;;3.23;1.30;;;;;;;10.45;65.51;94972.59;5111764;28;20256;-81
2023/11/16 09:50:14;;;;;;;3.13;1.20;;;;;;;10.45;65.77;94984.69;5111999;28;20204;-81
2023/11/16 09:52:41;;;;;;;3.60;1.20;;;;;;;10.47;65.61;94978.34;5112143;28;20199;-81
2023/11/16 09:55:16;;;;;;;1.80;1.10;;;;;;;10.53;64.97;94940.78;5112566;28;20200;-81
2023/11/16 09:57:45;;;;;;;2.23;1.27;;;;;;;10.58;64.96;94920.41;5112307;28;20226;-81
2023/11/16 10:00:18;;;;;;;1.83;1.10;;;;;;;10.59;64.36;94894.44;5107690;28;20195;-81
2023/11/16 10:02:46;;;;;;;2.30;1.33;;;;;;;10.67;64.71;94921.81;5111984;28;20191;-81
2023/11/16 10:05:22;;;;;;;1.10;1.00;;;;;;;10.73;64.43;94914.13;5112041;28;20218;-81
2023/11/16 10:07:51;;;;;;;2.17;1.30;;;;;;;10.78;64.54;94902.41;5112026;28;20203;-81
2023/11/16 10:10:19;;;;;;;1.47;1.00;;;;;;;10.84;63.67;94852.72;5112384;28;20195;-81
2023/11/16 10:12:47;;;;;;;2.70;1.17;;;;;;;10.88;63.42;94828.19;5112222;28;20610;-81
2023/11/16 10:15:19;;;;;;;2.33;1.13;;;;;;;10.98;63.16;94818.28;5110386;28;20203;-81
2023/11/16 10:17:46;;;;;;;1.90;1.10;;;;;;;11.02;63.06;94785.97;5112825;28;20196;-81
2023/11/16 10:20:13;;;;;;;4.00;1.20;;;;;;;11.03;62.70;94761.81;5115581;28;20203;-81
2023/11/16 10:22:41;;;;;;;4.97;1.40;;;;;;;11.14;62.80;94763.00;5118466;28;20214;-81
2023/11/16 10:25:10;;;;;;;2.83;1.07;;;;;;;11.15;62.16;94739.63;5117083;28;20206;-81
2023/11/16 10:28:15;;;;;;;2.17;1.10;;;;;;;11.19;61.64;94698.75;5118152;28;20191;-81
2023/11/16 10:30:46;;;;;;;2.13;1.00;;;;;;;11.18;61.02;94672.22;5114775;28;20199;-82
2023/11/16 10:33:15;;;;;;;3.67;1.20;;;;;;;11.24;61.66;94688.66;5113590;28;20655;-81
2023/11/16 10:35:47;;;;;;;2.63;1.07;;;;;;;11.22;61.12;94652.78;5096304;28;20211;-81
2023/11/16 10:38:15;;;;;;;2.20;1.13;;;;;;;11.30;61.35;94662.88;5095334;28;20220;-81
2023/11/16 10:40:43;;;;;;;2.03;1.00;;;;;;;11.28;60.89;94628.78;5092901;28;20506;-81
2023/11/16 10:43:11;;;;;;;3.20;1.10;;;;;;;11.22;60.61;94608.19;5093532;28;20673;-81
2023/11/16 10:45:42;;;;;;;2.30;1.03;;;;;;;11.20;60.75;94621.28;5095923;28;20196;-80
2023/11/16 10:48:13;;;;;;;2.60;1.10;;;;;;;11.24;61.22;94642.28;5100484;28;20227;-81
2023/11/16 10:50:40;;;;;;;3.30;1.20;;;;;;;11.29;61.22;94639.88;5093639;28;20196;-81
2023/11/16 10:53:13;;;;;;;2.83;1.07;;;;;;;11.26;60.84;94599.06;5091750;28;20204;-81
2023/11/16 10:55:40;;;;;;;1.53;0.97;;;;;;;11.18;61.30;94615.53;5091795;28;20206;-81
2023/11/16 10:58:09;;;;;;;1.67;1.10;;;;;;;11.25;61.96;94651.59;5090809;28;20285;-81
2023/11/16 11:00:37;;;;;;;2.97;1.27;;;;;;;11.28;61.76;94628.78;5090397;28;20619;-81
2023/11/16 11:03:06;;;;;;;1.00;0.90;;;;;;;11.23;61.10;94602.84;5098846;28;20208;-81
2023/11/16 11:05:36;;;;;;;7.77;1.30;;;;;;;11.28;61.56;94605.59;5111061;28;20203;-81
2023/11/16 11:08:10;;;;;;;2.90;1.10;;;;;;;11.31;60.93;94594.09;5111014;28;20210;-81
2023/11/16 11:10:38;;;;;;;2.87;1.70;;;;;;;11.34;61.10;94570.50;5111332;28;20863;-81
2023/11/16 11:13:06;;;;;;;1.90;1.33;;;;;;;11.27;61.08;94570.53;5116974;28;20206;-81
2023/11/16 11:15:35;;;;;;;1.83;1.17;;;;;;;11.31;61.09;94579.44;5123612;28;20202;-83
2023/11/16 11:18:04;;;;;;;2.23;1.10;;;;;;;11.30;60.80;94544.34;5091511;28;20200;-81
2023/11/16 11:20:36;;;;;;;3.00;1.37;;;;;;;11.34;60.92;94542.16;5103419;28;20568;-81
2023/11/16 11:23:07;;;;;;;3.10;1.23;;;;;;;11.41;60.43;94510.19;5110631;28;20665;-81
2023/11/16 11:25:34;;;;;;;2.63;1.40;;;;;;;11.37;60.05;94477.28;5111534;28;20207;-81
2023/11/16 11:28:02;;;;;;;1.33;1.00;;;;;;;11.33;60.44;94487.25;5110042;28;20203;-81
2023/11/16 11:30:29;;;;;;;3.03;1.17;;;;;;;11.40;60.67;94500.88;5101284;28;20196;-80
2023/11/16 11:33:01;;;;;;;3.80;1.57;;;;;;;11.46;60.79;94494.09;5109975;28;20209;-81
2023/11/16 11:35:28;;;;;;;5.13;1.73;;;;;;;11.45;60.40;94479.63;5105082;28;20208;-81
2023/11/16 11:37:56;;;;;;;4.73;1.30;;;;;;;11.49;60.64;94462.75;5110030;28;20287;-81
2023/11/16 11:40:26;;;;;;;2.20;1.23;;;;;;;11.50;60.25;94460.97;5110501;28;20213;-81
2023/11/16 11:42:53;;;;;;;2.63;1.40;;;;;;;11.40;61.22;94477.66;5109770;28;20226;-81